createdAt,value
2022-09-25T00:00:43.929Z,16.86
2022-09-25T00:01:46.057Z,16.68
2022-09-25T00:02:48.346Z,16.63
2022-09-25T00:03:50.743Z,16.64
2022-09-25T00:04:53.289Z,16.74
2022-09-25T00:06:22.822Z,17.02
2022-09-25T00:07:24.967Z,16.63
2022-09-25T00:08:27.149Z,16.64
2022-09-25T00:09:29.242Z,16.79
2022-09-25T00:10:32.040Z,16.71
2022-09-25T00:11:34.754Z,16.83
2022-09-25T00:12:36.845Z,16.68
2022-09-25T00:13:40.463Z,16.75
2022-09-25T00:14:42.601Z,16.64
2022-09-25T00:15:50.133Z,16.90
2022-09-25T00:16:52.352Z,16.52
2022-09-25T00:17:54.598Z,16.59
2022-09-25T00:19:16.237Z,16.77
2022-09-25T00:20:20.693Z,16.81
2022-09-25T00:21:23.023Z,16.66
2022-09-25T00:22:26.206Z,16.72
2022-09-25T00:23:28.356Z,16.62
2022-09-25T00:24:32.104Z,16.65
2022-09-25T00:25:34.560Z,16.56
2022-09-25T00:26:40.291Z,16.86
2022-09-25T00:27:44.414Z,16.76
2022-09-25T00:28:46.692Z,16.45
2022-09-25T00:29:48.938Z,16.51
2022-09-25T00:30:51.078Z,16.58
2022-09-25T00:31:55.126Z,16.86
2022-09-25T00:32:57.227Z,16.50
2022-09-25T00:34:01.623Z,16.74
2022-09-25T00:35:05.280Z,16.69
2022-09-25T00:36:09.679Z,16.68
2022-09-25T00:37:11.841Z,16.35
2022-09-25T00:38:14.018Z,16.45
2022-09-25T00:39:16.109Z,16.60
2022-09-25T00:40:19.672Z,16.41
2022-09-25T00:41:25.781Z,16.56
2022-09-25T00:42:27.867Z,16.52
2022-09-25T00:43:48.801Z,17.04
2022-09-25T00:44:57.644Z,16.96
2022-09-25T00:46:02.881Z,16.71
2022-09-25T00:47:05.449Z,16.69
2022-09-25T00:48:12.521Z,16.87
2022-09-25T00:49:17.505Z,16.97
2022-09-25T00:50:49.783Z,17.21
2022-09-25T00:52:03.362Z,17.24
2022-09-25T00:53:11.522Z,17.17
2022-09-25T00:54:17.949Z,17.23
2022-09-25T00:55:23.067Z,17.17
2022-09-25T00:56:26.365Z,17.01
2022-09-25T00:57:31.375Z,17.17
2022-09-25T00:58:35.383Z,17.15
2022-09-25T00:59:42.164Z,16.98
2022-09-25T01:00:44.264Z,16.74
2022-09-25T01:01:47.136Z,16.89
2022-09-25T01:02:53.425Z,17.17
2022-09-25T01:03:56.143Z,16.86
2022-09-25T01:05:03.040Z,17.07
2022-09-25T01:06:05.812Z,16.89
2022-09-25T01:07:09.164Z,16.77
2022-09-25T01:08:16.480Z,17.10
2022-09-25T01:09:19.085Z,16.91
2022-09-25T01:10:22.063Z,16.74
2022-09-25T01:11:24.267Z,16.81
2022-09-25T01:12:26.374Z,16.83
2022-09-25T01:13:29.899Z,16.84
2022-09-25T01:14:34.738Z,16.77
2022-09-25T01:15:45.447Z,17.00
2022-09-25T01:16:47.528Z,16.76
2022-09-25T01:18:04.410Z,16.98
2022-09-25T01:19:21.188Z,16.67
2022-09-25T01:20:23.250Z,16.51
2022-09-25T01:21:36.658Z,16.97
2022-09-25T01:23:03.771Z,16.85
2022-09-25T01:24:27.594Z,17.04
2022-09-25T01:25:48.243Z,16.73
2022-09-25T01:27:10.633Z,16.96
2022-09-25T01:28:47.864Z,17.12
2022-09-25T01:30:01.698Z,16.72
2022-09-25T01:31:11.428Z,16.95
2022-09-25T01:32:36.372Z,17.11
2022-09-25T01:33:46.605Z,17.05
2022-09-25T01:35:02.868Z,17.02
2022-09-25T01:36:17.191Z,17.07
2022-09-25T01:37:34.656Z,17.14
2022-09-25T01:39:09.790Z,17.11
2022-09-25T01:40:24.805Z,17.11
2022-09-25T01:41:50.749Z,17.18
2022-09-25T01:43:01.405Z,17.13
2022-09-25T01:44:13.524Z,17.16
2022-09-25T01:45:22.075Z,17.17
2022-09-25T01:46:29.127Z,17.12
2022-09-25T01:47:37.887Z,17.09
2022-09-25T01:48:43.277Z,16.96
2022-09-25T01:49:50.830Z,16.98
2022-09-25T01:51:07.098Z,17.11
2022-09-25T01:52:14.823Z,17.05
2022-09-25T01:53:25.747Z,17.07
2022-09-25T01:54:30.361Z,17.23
2022-09-25T01:55:50.911Z,17.17
2022-09-25T01:57:19.803Z,17.08
2022-09-25T01:58:36.827Z,17.10
2022-09-25T01:59:47.156Z,16.93
2022-09-25T02:00:56.605Z,16.89
2022-09-25T02:02:03.495Z,16.87
2022-09-25T02:03:17.283Z,16.80
2022-09-25T02:04:34.495Z,16.74
2022-09-25T02:05:44.595Z,16.62
2022-09-25T02:06:49.383Z,16.43
2022-09-25T02:07:57.041Z,16.40
2022-09-25T02:09:07.360Z,16.41
2022-09-25T02:10:19.145Z,16.50
2022-09-25T02:11:21.654Z,16.25
2022-09-25T02:12:34.254Z,16.37
2022-09-25T02:13:47.178Z,16.26
2022-09-25T02:15:02.812Z,16.30
2022-09-25T02:16:11.447Z,16.37
2022-09-25T02:17:41.779Z,16.34
2022-09-25T02:19:03.364Z,16.15
2022-09-25T02:20:24.841Z,16.10
2022-09-25T02:22:04.532Z,16.40
2022-09-25T02:23:18.750Z,16.27
2022-09-25T02:24:33.169Z,16.26
2022-09-25T02:25:40.953Z,16.19
2022-09-25T02:26:43.457Z,15.93
2022-09-25T02:27:46.221Z,16.10
2022-09-25T02:28:49.300Z,16.05
2022-09-25T02:29:52.279Z,16.05
2022-09-25T02:30:57.760Z,16.21
2022-09-25T02:32:09.042Z,16.27
2022-09-25T02:33:11.196Z,15.98
2022-09-25T02:34:15.339Z,15.91
2022-09-25T02:35:18.566Z,15.99
2022-09-25T02:36:23.979Z,16.10
2022-09-25T02:37:26.961Z,15.95
2022-09-25T02:38:31.417Z,15.98
2022-09-25T02:39:34.348Z,15.81
2022-09-25T02:40:45.778Z,15.99
2022-09-25T02:41:52.128Z,16.09
2022-09-25T02:43:33.093Z,16.08
2022-09-25T02:45:07.736Z,16.23
2022-09-25T02:46:41.986Z,16.14
2022-09-25T02:48:08.556Z,16.13
2022-09-25T02:49:37.066Z,15.88
2022-09-25T02:51:04.369Z,16.17
2022-09-25T02:52:16.427Z,15.73
2022-09-25T02:53:27.985Z,16.01
2022-09-25T02:54:38.596Z,15.85
2022-09-25T02:56:02.968Z,16.12
2022-09-25T02:57:14.319Z,15.95
2022-09-25T02:58:35.484Z,15.92
2022-09-25T02:59:46.293Z,15.82
2022-09-25T03:00:50.322Z,15.83
2022-09-25T03:01:53.037Z,15.55
2022-09-25T03:02:59.638Z,15.72
2022-09-25T03:04:05.395Z,15.65
2022-09-25T03:05:11.847Z,15.73
2022-09-25T03:06:14.320Z,15.55
2022-09-25T03:07:18.100Z,15.58
2022-09-25T03:08:40.983Z,15.62
2022-09-25T03:09:47.575Z,15.78
2022-09-25T03:10:49.740Z,15.42
2022-09-25T03:11:52.867Z,15.54
2022-09-25T03:12:54.944Z,15.51
2022-09-25T03:14:02.236Z,15.59
2022-09-25T03:15:04.764Z,15.38
2022-09-25T03:16:30.519Z,15.62
2022-09-25T03:17:34.324Z,15.60
2022-09-25T03:18:37.945Z,15.37
2022-09-25T03:19:40.084Z,15.24
2022-09-25T03:20:43.087Z,15.39
2022-09-25T03:21:46.301Z,15.54
2022-09-25T03:22:48.466Z,15.19
2022-09-25T03:23:50.603Z,15.33
2022-09-25T03:24:52.694Z,15.45
2022-09-25T03:25:55.346Z,15.54
2022-09-25T03:26:57.509Z,15.52
2022-09-25T03:27:59.583Z,15.40
2022-09-25T03:29:02.240Z,15.07
2022-09-25T03:30:06.121Z,15.16
2022-09-25T03:31:11.448Z,15.44
2022-09-25T03:32:14.800Z,15.33
2022-09-25T03:33:17.555Z,15.30
2022-09-25T03:34:20.132Z,15.39
2022-09-25T03:35:22.986Z,15.36
2022-09-25T03:36:28.168Z,15.55
2022-09-25T03:37:31.209Z,15.38
2022-09-25T03:38:33.939Z,15.35
2022-09-25T03:39:36.046Z,15.29
2022-09-25T03:40:38.306Z,15.31
2022-09-25T03:41:41.221Z,15.38
2022-09-25T03:42:44.022Z,15.34
2022-09-25T03:43:47.991Z,15.19
2022-09-25T03:44:50.138Z,15.34
2022-09-25T03:45:52.311Z,15.19
2022-09-25T03:46:54.491Z,15.23
2022-09-25T03:47:56.667Z,15.14
2022-09-25T03:48:59.438Z,15.19
2022-09-25T03:50:01.547Z,15.01
2022-09-25T03:51:04.784Z,14.95
2022-09-25T03:52:06.874Z,14.89
2022-09-25T03:53:09.015Z,14.95
2022-09-25T03:54:11.217Z,14.51
2022-09-25T03:55:13.377Z,14.90
2022-09-25T03:56:20.019Z,15.01
2022-09-25T03:57:22.125Z,14.74
2022-09-25T03:58:24.296Z,14.45
2022-09-25T03:59:26.882Z,14.78
2022-09-25T04:00:28.991Z,14.87
2022-09-25T04:01:31.258Z,14.89
2022-09-25T04:02:33.493Z,14.92
2022-09-25T04:03:35.714Z,14.74
2022-09-25T04:04:37.830Z,14.89
2022-09-25T04:05:40.249Z,14.86
2022-09-25T04:06:42.335Z,14.92
2022-09-25T04:07:44.462Z,14.76
2022-09-25T04:08:48.076Z,14.81
2022-09-25T04:09:50.405Z,14.74
2022-09-25T04:10:57.047Z,15.26
2022-09-25T04:11:59.158Z,15.09
2022-09-25T04:13:01.714Z,14.92
2022-09-25T04:14:04.720Z,15.13
2022-09-25T04:15:08.852Z,15.08
2022-09-25T04:16:12.338Z,15.03
2022-09-25T04:17:14.588Z,14.92
2022-09-25T04:18:16.694Z,15.01
2022-09-25T04:19:18.772Z,15.17
2022-09-25T04:20:20.890Z,15.24
2022-09-25T04:21:23.322Z,15.28
2022-09-25T04:22:25.523Z,15.14
2022-09-25T04:23:28.021Z,15.06
2022-09-25T04:24:48.387Z,15.07
2022-09-25T04:25:50.586Z,15.15
2022-09-25T04:26:53.656Z,14.89
2022-09-25T04:27:56.851Z,15.18
2022-09-25T04:29:01.401Z,15.09
2022-09-25T04:30:05.278Z,15.33
2022-09-25T04:31:07.454Z,15.13
2022-09-25T04:32:31.562Z,15.19
2022-09-25T04:33:46.334Z,15.08
2022-09-25T04:34:48.549Z,15.09
2022-09-25T04:35:50.757Z,15.17
2022-09-25T04:36:52.858Z,15.19
2022-09-25T04:37:55.061Z,14.90
2022-09-25T04:38:57.155Z,15.17
2022-09-25T04:39:59.264Z,15.23
2022-09-25T04:41:01.991Z,15.27
2022-09-25T04:42:04.127Z,15.28
2022-09-25T04:43:07.099Z,15.23
2022-09-25T04:44:09.205Z,15.20
2022-09-25T04:45:11.437Z,14.98
2022-09-25T04:46:20.085Z,15.23
2022-09-25T04:47:29.201Z,15.00
2022-09-25T04:48:32.081Z,14.94
2022-09-25T04:49:34.172Z,14.96
2022-09-25T04:50:36.364Z,14.77
2022-09-25T04:51:38.457Z,14.85
2022-09-25T04:52:40.589Z,14.79
2022-09-25T04:53:43.076Z,14.69
2022-09-25T04:54:45.406Z,14.64
2022-09-25T04:55:48.106Z,14.71
2022-09-25T04:56:50.283Z,14.64
2022-09-25T04:58:01.779Z,14.72
2022-09-25T04:59:03.885Z,14.48
2022-09-25T05:00:06.838Z,14.55
2022-09-25T05:01:09.668Z,14.57
2022-09-25T05:02:12.680Z,14.52
2022-09-25T05:03:15.519Z,14.40
2022-09-25T05:04:17.751Z,14.53
2022-09-25T05:05:20.182Z,14.63
2022-09-25T05:06:23.173Z,14.73
2022-09-25T05:07:25.387Z,14.51
2022-09-25T05:08:28.093Z,14.58
2022-09-25T05:09:30.783Z,14.51
2022-09-25T05:10:39.709Z,14.64
2022-09-25T05:11:41.885Z,14.58
2022-09-25T05:12:44.052Z,14.61
2022-09-25T05:13:50.182Z,14.70
2022-09-25T05:14:52.371Z,14.58
2022-09-25T05:15:55.000Z,14.67
2022-09-25T05:16:57.326Z,14.70
2022-09-25T05:18:21.389Z,14.96
2022-09-25T05:19:24.010Z,14.49
2022-09-25T05:20:26.195Z,14.57
2022-09-25T05:21:28.301Z,14.67
2022-09-25T05:22:30.518Z,14.63
2022-09-25T05:23:32.787Z,14.48
2022-09-25T05:24:35.510Z,14.56
2022-09-25T05:25:37.806Z,14.55
2022-09-25T05:26:41.229Z,14.60
2022-09-25T05:27:44.410Z,14.39
2022-09-25T05:28:50.314Z,14.46
2022-09-25T05:29:52.553Z,14.21
2022-09-25T05:30:54.923Z,14.32
2022-09-25T05:31:57.031Z,14.34
2022-09-25T05:32:59.467Z,14.28
2022-09-25T05:34:01.587Z,14.35
2022-09-25T05:35:04.474Z,14.50
2022-09-25T05:36:07.932Z,14.71
2022-09-25T05:37:10.043Z,14.60
2022-09-25T05:38:12.438Z,14.61
2022-09-25T05:39:14.904Z,14.70
2022-09-25T05:40:19.468Z,14.81
2022-09-25T05:41:21.700Z,14.82
2022-09-25T05:42:23.770Z,14.87
2022-09-25T05:43:26.581Z,14.53
2022-09-25T05:44:28.711Z,14.56
2022-09-25T05:45:30.808Z,14.68
2022-09-25T05:46:34.036Z,14.73
2022-09-25T05:47:36.133Z,14.66
2022-09-25T05:48:38.988Z,14.75
2022-09-25T05:49:41.115Z,14.63
2022-09-25T05:50:43.225Z,14.55
2022-09-25T05:51:45.366Z,14.57
2022-09-25T05:52:55.562Z,14.85
2022-09-25T05:53:57.911Z,14.62
2022-09-25T05:55:00.827Z,14.40
2022-09-25T05:56:05.187Z,14.65
2022-09-25T05:57:07.320Z,14.59
2022-09-25T05:58:09.460Z,14.66
2022-09-25T05:59:11.562Z,14.58
2022-09-25T06:00:16.329Z,14.75
2022-09-25T06:01:18.764Z,14.86
2022-09-25T06:02:20.892Z,15.03
2022-09-25T06:03:23.038Z,15.18
2022-09-25T06:04:25.463Z,15.35
2022-09-25T06:05:27.650Z,15.46
2022-09-25T06:06:31.766Z,15.58
2022-09-25T06:07:33.853Z,15.66
2022-09-25T06:08:36.032Z,15.69
2022-09-25T06:09:38.156Z,15.96
2022-09-25T06:10:41.236Z,16.16
2022-09-25T06:11:47.360Z,15.99
2022-09-25T06:12:49.554Z,16.00
2022-09-25T06:13:54.815Z,16.20
2022-09-25T06:14:57.044Z,16.13
2022-09-25T06:15:59.353Z,16.25
2022-09-25T06:17:01.996Z,16.45
2022-09-25T06:18:08.690Z,16.61
2022-09-25T06:20:36.144Z,16.79
2022-09-25T06:21:38.263Z,17.05
2022-09-25T06:22:40.422Z,17.26
2022-09-25T06:23:45.324Z,17.12
2022-09-25T06:24:48.747Z,17.30
2022-09-25T06:25:50.927Z,17.25
2022-09-25T06:26:53.143Z,17.19
2022-09-25T06:27:57.055Z,17.45
2022-09-25T06:29:03.236Z,17.41
2022-09-25T06:30:06.280Z,17.34
2022-09-25T06:31:08.539Z,17.34
2022-09-25T06:32:10.682Z,17.14
2022-09-25T06:33:14.339Z,17.09
2022-09-25T06:34:16.433Z,16.90
2022-09-25T06:35:18.565Z,16.87
2022-09-25T06:36:20.744Z,16.91
2022-09-25T06:37:22.885Z,16.91
2022-09-25T06:38:25.877Z,16.76
2022-09-25T06:39:28.028Z,16.79
2022-09-25T06:40:31.907Z,16.99
2022-09-25T06:41:34.693Z,16.85
2022-09-25T06:42:37.799Z,16.75
2022-09-25T06:43:39.958Z,16.81
2022-09-25T06:44:43.842Z,16.81
2022-09-25T06:45:47.880Z,16.63
2022-09-25T06:46:54.529Z,16.96
2022-09-25T06:48:04.933Z,17.00
2022-09-25T06:49:07.089Z,16.76
2022-09-25T06:50:09.446Z,16.84
2022-09-25T06:51:11.624Z,16.68
2022-09-25T06:52:13.736Z,16.78
2022-09-25T06:53:17.444Z,16.96
2022-09-25T06:54:19.569Z,16.78
2022-09-25T06:55:21.684Z,16.82
2022-09-25T06:56:24.325Z,16.78
2022-09-25T06:57:26.416Z,16.81
2022-09-25T06:58:30.338Z,16.94
2022-09-25T06:59:32.527Z,16.69
2022-09-25T07:00:34.984Z,16.70
2022-09-25T07:01:37.138Z,16.77
2022-09-25T07:02:58.185Z,16.88
2022-09-25T07:04:01.733Z,16.97
2022-09-25T07:05:04.120Z,16.97
2022-09-25T07:06:09.045Z,17.10
2022-09-25T07:07:11.218Z,17.10
2022-09-25T07:08:16.256Z,17.16
2022-09-25T07:09:18.373Z,17.10
2022-09-25T07:10:20.586Z,17.19
2022-09-25T07:11:31.366Z,17.55
2022-09-25T07:12:34.195Z,17.18
2022-09-25T07:13:36.817Z,17.11
2022-09-25T07:14:39.098Z,17.21
2022-09-25T07:15:41.248Z,17.08
2022-09-25T07:16:43.410Z,17.08
2022-09-25T07:17:46.094Z,17.17
2022-09-25T07:18:48.582Z,17.26
2022-09-25T07:19:50.707Z,17.26
2022-09-25T07:20:53.990Z,17.33
2022-09-25T07:21:56.516Z,17.40
2022-09-25T07:23:04.032Z,17.69
2022-09-25T07:24:06.195Z,17.39
2022-09-25T07:25:09.906Z,17.53
2022-09-25T07:26:15.133Z,17.52
2022-09-25T07:27:17.375Z,17.40
2022-09-25T07:28:20.054Z,17.28
2022-09-25T07:29:22.311Z,17.20
2022-09-25T07:30:27.372Z,17.22
2022-09-25T07:31:32.984Z,17.15
2022-09-25T07:32:35.805Z,17.02
2022-09-25T07:33:38.417Z,16.88
2022-09-25T07:34:40.539Z,16.75
2022-09-25T07:35:42.701Z,16.93
2022-09-25T07:36:44.886Z,16.72
2022-09-25T07:37:47.021Z,16.36
2022-09-25T07:38:50.928Z,16.41
2022-09-25T07:39:53.035Z,16.43
2022-09-25T07:40:55.175Z,16.46
2022-09-25T07:41:57.386Z,16.23
2022-09-25T07:43:00.384Z,16.34
2022-09-25T07:44:18.031Z,16.41
2022-09-25T07:45:24.800Z,16.16
2022-09-25T07:46:28.358Z,16.42
2022-09-25T07:47:30.501Z,16.32
2022-09-25T07:48:33.174Z,16.55
2022-09-25T07:49:35.703Z,16.58
2022-09-25T07:50:37.792Z,16.62
2022-09-25T07:51:39.965Z,16.55
2022-09-25T07:52:42.128Z,16.91
2022-09-25T07:53:45.269Z,16.80
2022-09-25T07:54:48.111Z,16.57
2022-09-25T07:55:51.113Z,16.70
2022-09-25T07:56:53.303Z,16.64
2022-09-25T07:57:58.342Z,16.86
2022-09-25T07:59:00.494Z,16.47
2022-09-25T08:00:02.661Z,16.43
2022-09-25T08:01:14.136Z,16.82
2022-09-25T08:02:16.410Z,16.83
2022-09-25T08:03:18.718Z,16.89
2022-09-25T08:04:21.446Z,16.99
2022-09-25T08:05:23.587Z,17.17
2022-09-25T08:06:25.686Z,17.36
2022-09-25T08:07:28.775Z,17.59
2022-09-25T08:08:31.521Z,17.35
2022-09-25T08:09:33.623Z,17.32
2022-09-25T08:10:35.807Z,17.02
2022-09-25T08:11:38.388Z,17.37
2022-09-25T08:12:40.960Z,17.56
2022-09-25T08:13:43.846Z,17.75
2022-09-25T08:14:46.098Z,17.75
2022-09-25T08:15:48.826Z,17.90
2022-09-25T08:16:55.687Z,17.81
2022-09-25T08:17:57.798Z,17.84
2022-09-25T08:18:59.884Z,18.01
2022-09-25T08:20:02.779Z,18.11
2022-09-25T08:21:05.413Z,17.93
2022-09-25T08:22:07.566Z,18.10
2022-09-25T08:23:09.779Z,18.40
2022-09-25T08:24:12.033Z,19.04
2022-09-25T08:25:14.627Z,19.81
2022-09-25T08:26:17.846Z,20.98
2022-09-25T08:27:19.981Z,21.29
2022-09-25T08:28:23.084Z,21.73
2022-09-25T08:29:25.239Z,22.81
2022-09-25T08:30:27.315Z,23.46
2022-09-25T08:31:29.973Z,23.72
2022-09-25T08:32:34.319Z,25.39
2022-09-25T08:33:37.356Z,25.63
2022-09-25T08:34:41.475Z,26.38
2022-09-25T08:35:44.062Z,26.30
2022-09-25T08:36:49.007Z,27.09
2022-09-25T08:37:51.110Z,27.78
2022-09-25T08:38:58.531Z,28.03
2022-09-25T08:40:00.941Z,27.37
2022-09-25T08:41:13.328Z,28.17
2022-09-25T08:42:23.147Z,28.69
2022-09-25T08:43:26.719Z,28.77
2022-09-25T08:44:31.640Z,29.53
2022-09-25T08:46:01.812Z,30.30
2022-09-25T08:47:41.926Z,29.58
2022-09-25T08:49:06.194Z,30.03
2022-09-25T08:50:35.213Z,29.93
2022-09-25T08:51:45.423Z,30.53
2022-09-25T08:53:01.015Z,29.98
2022-09-25T08:54:04.601Z,30.70
2022-09-25T08:55:54.623Z,29.78
2022-09-25T08:57:06.994Z,29.87
2022-09-25T08:58:10.293Z,30.13
2022-09-25T08:59:32.967Z,30.89
2022-09-25T09:00:35.257Z,29.07
2022-09-25T09:01:47.653Z,29.45
2022-09-25T09:02:55.123Z,30.12
2022-09-25T09:04:26.339Z,29.78
2022-09-25T09:05:33.796Z,29.81
2022-09-25T09:06:38.122Z,30.56
2022-09-25T09:07:43.891Z,30.35
2022-09-25T09:08:56.994Z,31.31
2022-09-25T09:10:21.521Z,30.33
2022-09-25T09:11:36.443Z,30.18
2022-09-25T09:12:53.604Z,30.62
2022-09-25T09:14:06.912Z,31.04
2022-09-25T09:15:18.655Z,30.90
2022-09-25T09:16:26.592Z,30.04
2022-09-25T09:17:41.426Z,29.49
2022-09-25T09:18:44.015Z,30.72
2022-09-25T09:19:50.448Z,31.72
2022-09-25T09:20:58.077Z,31.72
2022-09-25T09:22:14.943Z,32.41
2022-09-25T09:23:20.434Z,32.51
2022-09-25T09:24:29.188Z,32.82
2022-09-25T09:25:40.524Z,32.37
2022-09-25T09:26:52.634Z,29.86
2022-09-25T09:28:32.135Z,31.94
2022-09-25T09:29:47.799Z,31.02
2022-09-25T09:31:33.015Z,32.46
2022-09-25T09:33:02.903Z,32.33
2022-09-25T09:35:00.973Z,31.36
2022-09-25T09:36:13.822Z,31.18
2022-09-25T09:37:31.693Z,29.85
2022-09-25T09:38:46.195Z,28.89
2022-09-25T09:39:57.150Z,28.01
2022-09-25T09:41:26.930Z,27.81
2022-09-25T09:42:28.995Z,27.10
2022-09-25T09:43:33.798Z,27.94
2022-09-25T09:44:50.926Z,27.74
2022-09-25T09:46:04.168Z,28.39
2022-09-25T09:47:44.887Z,27.85
2022-09-25T09:49:08.881Z,28.24
2022-09-25T09:50:20.307Z,26.76
2022-09-25T09:51:32.175Z,26.45
2022-09-25T09:52:42.327Z,26.71
2022-09-25T09:53:51.650Z,27.69
2022-09-25T09:55:02.401Z,28.40
2022-09-25T09:56:14.733Z,29.17
2022-09-25T09:57:23.039Z,30.56
2022-09-25T09:58:33.564Z,30.78
2022-09-25T09:59:46.679Z,31.03
2022-09-25T10:00:50.067Z,31.37
2022-09-25T10:02:13.750Z,32.59
2022-09-25T10:03:24.775Z,31.92
2022-09-25T10:04:33.802Z,30.64
2022-09-25T10:05:48.504Z,30.49
2022-09-25T10:07:01.279Z,29.26
2022-09-25T10:08:04.044Z,28.51
2022-09-25T10:09:08.250Z,28.09
2022-09-25T10:10:16.045Z,28.63
2022-09-25T10:11:20.553Z,27.31
2022-09-25T10:12:29.098Z,26.83
2022-09-25T10:13:34.214Z,26.98
2022-09-25T10:14:41.046Z,27.00
2022-09-25T10:15:51.079Z,26.98
2022-09-25T10:16:53.937Z,26.84
2022-09-25T10:17:59.775Z,26.23
2022-09-25T10:19:19.199Z,25.67
2022-09-25T10:20:23.460Z,25.16
2022-09-25T10:21:31.603Z,24.75
2022-09-25T10:22:43.818Z,24.13
2022-09-25T10:23:54.032Z,23.84
2022-09-25T10:25:07.112Z,23.45
2022-09-25T10:26:36.701Z,23.62
2022-09-25T10:27:47.854Z,23.57
2022-09-25T10:28:50.393Z,23.29
2022-09-25T10:30:02.614Z,23.56
2022-09-25T10:31:08.961Z,23.54
2022-09-25T10:32:11.685Z,22.88
2022-09-25T10:33:22.295Z,22.92
2022-09-25T10:34:26.413Z,22.84
2022-09-25T10:35:30.476Z,22.78
2022-09-25T10:36:37.510Z,22.70
2022-09-25T10:37:40.708Z,22.75
2022-09-25T10:38:53.427Z,23.16
2022-09-25T10:40:22.663Z,23.13
2022-09-25T10:41:25.911Z,22.86
2022-09-25T10:42:39.463Z,23.20
2022-09-25T10:43:55.589Z,23.37
2022-09-25T10:44:58.203Z,23.01
2022-09-25T10:46:11.634Z,23.63
2022-09-25T10:47:38.503Z,24.05
2022-09-25T10:49:00.560Z,23.60
2022-09-25T10:50:24.440Z,24.41
2022-09-25T10:51:27.079Z,23.76
2022-09-25T10:52:29.176Z,23.43
2022-09-25T10:53:31.261Z,23.03
2022-09-25T10:54:36.772Z,23.83
2022-09-25T10:55:46.379Z,24.53
2022-09-25T10:56:49.177Z,24.46
2022-09-25T10:58:04.732Z,24.19
2022-09-25T10:59:22.042Z,24.03
2022-09-25T11:00:26.838Z,23.95
2022-09-25T11:01:35.263Z,24.21
2022-09-25T11:02:45.652Z,24.63
2022-09-25T11:03:52.464Z,24.69
2022-09-25T11:04:56.995Z,24.74
2022-09-25T11:06:04.197Z,24.70
2022-09-25T11:07:15.575Z,24.64
2022-09-25T11:08:17.789Z,24.61
2022-09-25T11:09:23.299Z,25.01
2022-09-25T11:10:29.489Z,24.80
2022-09-25T11:11:31.801Z,24.77
2022-09-25T11:12:34.840Z,24.99
2022-09-25T11:13:43.079Z,25.62
2022-09-25T11:14:56.315Z,25.42
2022-09-25T11:16:04.119Z,25.43
2022-09-25T11:17:06.714Z,25.43
2022-09-25T11:18:39.289Z,25.53
2022-09-25T11:19:41.481Z,24.59
2022-09-25T11:20:43.562Z,24.53
2022-09-25T11:21:57.027Z,25.06
2022-09-25T11:23:21.992Z,24.84
2022-09-25T11:24:27.288Z,24.35
2022-09-25T11:26:16.616Z,23.79
2022-09-25T11:27:31.317Z,23.17
2022-09-25T11:28:52.198Z,23.15
2022-09-25T11:30:00.571Z,23.04
2022-09-25T11:31:02.604Z,23.17
2022-09-25T11:32:31.911Z,23.45
2022-09-25T11:33:52.869Z,24.31
2022-09-25T11:34:59.337Z,25.67
2022-09-25T11:36:33.199Z,27.24
2022-09-25T11:37:50.659Z,28.43
2022-09-25T11:39:18.264Z,28.96
2022-09-25T11:41:03.571Z,29.83
2022-09-25T11:42:16.132Z,31.16
2022-09-25T11:43:35.171Z,31.26
2022-09-25T11:44:45.173Z,29.94
2022-09-25T11:45:59.457Z,29.47
2022-09-25T11:47:53.511Z,28.58
2022-09-25T11:49:25.008Z,28.00
2022-09-25T11:50:42.907Z,26.98
2022-09-25T11:52:04.101Z,26.42
2022-09-25T11:53:24.426Z,25.95
2022-09-25T11:55:11.482Z,25.69
2022-09-25T11:56:33.237Z,25.33
2022-09-25T11:57:59.641Z,25.34
2022-09-25T11:59:29.664Z,24.95
2022-09-25T12:00:55.422Z,24.99
2022-09-25T12:02:20.837Z,24.46
2022-09-25T12:03:35.264Z,23.87
2022-09-25T12:05:07.945Z,24.24
2022-09-25T12:06:45.155Z,23.91
2022-09-25T12:08:09.556Z,24.29
2022-09-25T12:09:14.675Z,23.64
2022-09-25T12:10:19.416Z,23.45
2022-09-25T12:11:45.766Z,23.74
2022-09-25T12:13:13.786Z,24.03
2022-09-25T12:14:37.124Z,23.95
2022-09-25T12:15:49.448Z,23.68
2022-09-25T12:17:17.749Z,23.81
2022-09-25T12:18:46.267Z,23.90
2022-09-25T12:19:52.053Z,23.58
2022-09-25T12:22:44.124Z,23.85
2022-09-25T12:24:01.431Z,24.00
2022-09-25T12:25:21.264Z,24.20
2022-09-25T12:26:55.570Z,24.63
2022-09-25T12:28:12.164Z,25.40
2022-09-25T12:29:35.806Z,25.83
2022-09-25T12:31:01.279Z,25.77
2022-09-25T12:32:28.993Z,25.75
2022-09-25T12:33:45.876Z,25.61
2022-09-25T12:35:29.100Z,25.37
2022-09-25T12:36:42.816Z,24.80
2022-09-25T12:37:53.120Z,25.01
2022-09-25T12:39:24.823Z,24.62
2022-09-25T12:40:34.677Z,23.75
2022-09-25T12:41:42.970Z,23.58
2022-09-25T12:43:02.890Z,23.47
2022-09-25T12:44:12.717Z,23.21
2022-09-25T12:45:36.309Z,23.10
2022-09-25T12:46:44.110Z,23.28
2022-09-25T12:48:00.030Z,23.17
2022-09-25T12:49:07.085Z,22.92
2022-09-25T12:50:17.478Z,22.49
2022-09-25T12:51:23.790Z,22.83
2022-09-25T12:52:38.030Z,22.75
2022-09-25T12:53:49.553Z,23.15
2022-09-25T12:55:05.920Z,23.63
2022-09-25T12:56:24.685Z,23.68
2022-09-25T12:57:45.770Z,23.83
2022-09-25T12:59:13.649Z,24.09
2022-09-25T13:00:25.869Z,23.91
2022-09-25T13:01:41.971Z,23.97
2022-09-25T13:02:54.570Z,24.15
2022-09-25T13:04:08.968Z,25.03
2022-09-25T13:05:25.770Z,26.10
2022-09-25T13:06:50.284Z,26.89
2022-09-25T13:08:03.739Z,27.33
2022-09-25T13:09:14.853Z,27.89
2022-09-25T13:10:40.917Z,28.87
2022-09-25T13:11:47.903Z,29.38
2022-09-25T13:12:52.182Z,29.02
2022-09-25T13:13:55.981Z,29.04
2022-09-25T13:15:13.150Z,29.00
2022-09-25T13:16:16.767Z,29.41
2022-09-25T13:17:19.110Z,29.95
2022-09-25T13:18:23.615Z,29.46
2022-09-25T13:19:28.768Z,29.93
2022-09-25T13:20:31.820Z,30.04
2022-09-25T13:21:36.904Z,30.26
2022-09-25T13:22:41.401Z,30.15
2022-09-25T13:23:43.566Z,30.22
2022-09-25T13:24:52.341Z,30.42
2022-09-25T13:26:00.371Z,30.08
2022-09-25T13:27:03.538Z,29.96
2022-09-25T13:28:07.991Z,30.54
2022-09-25T13:29:36.473Z,30.92
2022-09-25T13:30:38.704Z,30.56
2022-09-25T13:31:44.404Z,30.32
2022-09-25T13:32:52.562Z,30.40
2022-09-25T13:33:57.537Z,30.27
2022-09-25T13:35:03.717Z,30.33
2022-09-25T13:36:16.367Z,30.15
2022-09-25T13:37:18.539Z,29.65
2022-09-25T13:38:39.132Z,29.78
2022-09-25T13:40:05.366Z,29.93
2022-09-25T13:41:13.427Z,29.83
2022-09-25T13:42:39.657Z,29.00
2022-09-25T13:43:41.872Z,28.67
2022-09-25T13:44:44.502Z,27.95
2022-09-25T13:45:48.579Z,28.20
2022-09-25T13:46:50.939Z,27.65
2022-09-25T13:48:06.140Z,27.28
2022-09-25T13:49:35.410Z,26.85
2022-09-25T13:50:38.675Z,26.97
2022-09-25T13:51:44.954Z,26.47
2022-09-25T13:52:47.028Z,25.99
2022-09-25T13:54:05.402Z,26.62
2022-09-25T13:55:13.636Z,26.18
2022-09-25T13:56:21.424Z,25.57
2022-09-25T13:57:58.826Z,25.40
2022-09-25T13:59:20.646Z,25.43
2022-09-25T14:00:23.750Z,25.32
2022-09-25T14:01:38.378Z,26.15
2022-09-25T14:02:46.330Z,26.58
2022-09-25T14:03:50.025Z,26.73
2022-09-25T14:04:52.313Z,26.86
2022-09-25T14:05:54.560Z,27.38
2022-09-25T14:07:13.051Z,27.74
2022-09-25T14:08:16.260Z,27.72
2022-09-25T14:09:28.185Z,27.30
2022-09-25T14:10:30.443Z,27.62
2022-09-25T14:11:35.334Z,27.82
2022-09-25T14:12:43.109Z,28.23
2022-09-25T14:13:50.428Z,28.52
2022-09-25T14:15:01.862Z,28.56
2022-09-25T14:16:10.103Z,28.24
2022-09-25T14:17:16.607Z,28.30
2022-09-25T14:18:24.534Z,28.16
2022-09-25T14:19:31.306Z,28.54
2022-09-25T14:20:43.098Z,28.76
2022-09-25T14:21:48.113Z,28.47
2022-09-25T14:22:55.922Z,28.96
2022-09-25T14:24:12.742Z,29.14
2022-09-25T14:25:44.699Z,29.16
2022-09-25T14:26:48.433Z,28.67
2022-09-25T14:27:52.888Z,28.61
2022-09-25T14:28:57.207Z,28.56
2022-09-25T14:30:06.509Z,28.61
2022-09-25T14:31:11.361Z,28.52
2022-09-25T14:32:55.163Z,28.15
2022-09-25T14:34:46.411Z,27.82
2022-09-25T14:36:10.080Z,27.37
2022-09-25T14:37:54.729Z,26.96
2022-09-25T14:39:12.309Z,26.99
2022-09-25T14:40:22.400Z,26.66
2022-09-25T14:41:43.937Z,26.29
2022-09-25T14:43:07.316Z,26.38
2022-09-25T14:44:45.932Z,26.34
2022-09-25T14:46:00.435Z,26.46
2022-09-25T14:47:04.313Z,25.99
2022-09-25T14:48:13.109Z,25.89
2022-09-25T14:49:29.313Z,25.73
2022-09-25T14:50:39.642Z,24.94
2022-09-25T14:51:47.144Z,25.02